Magog, Canada
Current Conditions -  °F | °C
As of 2:15 PM on Friday 21 Nov 2014 (Local Time) from KEFK Reporting Station
Clear Clear  
Wind Chill:   Ceiling: Unl
Heat Index: 20°   Visibility: 10mi
Dew Point:   Wind: 12mph
Humidity: 56%   Direction: 280°W
Pressure: 30.15"   Gusts: 25mph
Location:  45.26°N, 72.15°W
Report Text: KEFK 211915Z AUTO 28010G22KT 10SM CLR M07/M14 A3015 RMK AO2 T10661140
Loading
Personal Weather Stations






























Interactive Weather Map New forecast layout! Learn more

10-Day Weather Forecast

Advertisements
Track Severe Weather on mobile